< < Back
Terminal Aerodrome Forecast


Current Version              Previous Versions:   1  2  3  4  5  6  7  8  9  

Terminal Aerodrome Forecast

855
FTAK31 PAJN 191700 RRA
TAFAHN
TAF
PAHN 191741Z 1918/2018 31011KT P6SM SCT150
     FM200300 30008KT P6SM SCT050 BKN100
     FM200900 30005KT P6SM VCSH BKN050 BKN100
     FM201200 30008KT P6SM -RA BKN040 OVC080
     FM201500 09006KT P6SM -RA SCT020 OVC040
      AMD LTD TO CLD VIS AND WIND=

Latest METAR

497
SAUS70 KWBC 200300 RRA
MTRAHN
METAR KAHN 200251Z AUTO 06010G16KT 10SM FEW023 OVC031 12/08 A3019 RMK
AO2 SLP223 T01170078 51008


USA.gov is the U.S. government's official web portal to all federal, state and local government web resources and services.